ARG1689 SVMI-SVMC
Flight info
| Callsign | ARG1689 |
|---|---|
| Flight time | 0h 58m |
| Altitude | 24000 |
| Route | MARES A315 ATONO G427 PBL UW52 MAU A552 MAR |
| Aircraft | A320/M-SDE3FGHIRWY/LB1 |
Departure
| Time | 2026-04-27 22:30 |
|---|---|
| Airport | Maiquetía Simón Bolívar International Airport (SVMI) |
Arrival
| Time | 2026-04-27 23:29 |
|---|---|
| Airport | La Chinita International Airport (SVMC) |
| Time | Latitude | Longitude | Altitude | Speed | Heading |
|---|---|---|---|---|---|
| 2026-04-27 21:58 | 10.59844 | -67.00518 | 193 ft | 0 kts | 51° |
| 2026-04-27 22:24 | 10.59854 | -67.00507 | 226 ft | 6 kts | 48° |
| 2026-04-27 22:25 | 10.59880 | -67.00502 | 224 ft | 2 kts | 346° |
| 2026-04-27 22:25 | 10.59900 | -67.00514 | 224 ft | 12 kts | 323° |
| 2026-04-27 22:25 | 10.59914 | -67.00593 | 225 ft | 10 kts | 266° |
| 2026-04-27 22:25 | 10.59910 | -67.00654 | 226 ft | 13 kts | 268° |
| 2026-04-27 22:26 | 10.59906 | -67.00830 | 230 ft | 36 kts | 269° |
| 2026-04-27 22:26 | 10.59885 | -67.01118 | 237 ft | 31 kts | 265° |
| 2026-04-27 22:26 | 10.59931 | -67.01240 | 240 ft | 13 kts | 335° |
| 2026-04-27 22:26 | 10.60005 | -67.01250 | 240 ft | 12 kts | 358° |
| 2026-04-27 22:27 | 10.60112 | -67.01254 | 241 ft | 19 kts | 355° |
| 2026-04-27 22:27 | 10.60251 | -67.01259 | 241 ft | 20 kts | 356° |
| 2026-04-27 22:27 | 10.60373 | -67.01250 | 241 ft | 12 kts | 52° |
| 2026-04-27 22:27 | 10.60379 | -67.01231 | 241 ft | 0 kts | 86° |
| 2026-04-27 22:28 | 10.60379 | -67.01230 | 241 ft | 0 kts | 87° |
| 2026-04-27 22:28 | 10.60379 | -67.01217 | 240 ft | 13 kts | 87° |
| 2026-04-27 22:28 | 10.60392 | -67.00826 | 229 ft | 93 kts | 89° |
| 2026-04-27 22:29 | 10.60418 | -66.99932 | 206 ft | 154 kts | 88° |
| 2026-04-27 22:29 | 10.60467 | -66.98683 | 275 ft | 194 kts | 87° |
| 2026-04-27 22:29 | 10.60501 | -66.97204 | 485 ft | 227 kts | 88° |
| 2026-04-27 22:29 | 10.60752 | -66.95493 | 806 ft | 262 kts | 76° |
| 2026-04-27 22:30 | 10.61521 | -66.93820 | 518 ft | 262 kts | 46° |
| 2026-04-27 22:30 | 10.63040 | -66.93001 | 578 ft | 248 kts | 5° |
| 2026-04-27 22:30 | 10.64729 | -66.93398 | 1318 ft | 257 kts | 327° |
| 2026-04-27 22:30 | 10.65875 | -66.94758 | 2157 ft | 263 kts | 292° |
| 2026-04-27 22:31 | 10.66206 | -66.96603 | 2907 ft | 271 kts | 272° |
| 2026-04-27 22:31 | 10.66251 | -66.98539 | 3679 ft | 277 kts | 269° |
| 2026-04-27 22:31 | 10.66274 | -67.00515 | 4510 ft | 281 kts | 269° |
| 2026-04-27 22:31 | 10.66296 | -67.02517 | 5317 ft | 285 kts | 270° |
| 2026-04-27 22:32 | 10.66436 | -67.04543 | 6109 ft | 290 kts | 277° |
| 2026-04-27 22:32 | 10.67048 | -67.06493 | 6875 ft | 292 kts | 304° |
| 2026-04-27 22:32 | 10.68327 | -67.08120 | 7597 ft | 297 kts | 311° |
| 2026-04-27 22:32 | 10.69677 | -67.09736 | 8309 ft | 302 kts | 311° |
| 2026-04-27 22:33 | 10.71043 | -67.11387 | 9040 ft | 306 kts | 310° |
| 2026-04-27 22:33 | 10.72411 | -67.13067 | 9788 ft | 310 kts | 310° |
| 2026-04-27 22:33 | 10.73785 | -67.14781 | 10360 ft | 319 kts | 309° |
| 2026-04-27 22:33 | 10.75219 | -67.16588 | 10701 ft | 336 kts | 309° |
| 2026-04-27 22:34 | 10.76715 | -67.18484 | 11010 ft | 352 kts | 309° |
| 2026-04-27 22:34 | 10.78285 | -67.20481 | 11292 ft | 369 kts | 309° |
| 2026-04-27 22:34 | 10.79908 | -67.22561 | 11737 ft | 378 kts | 308° |
| 2026-04-27 22:34 | 10.81516 | -67.24693 | 12358 ft | 381 kts | 307° |
| 2026-04-27 22:35 | 10.83140 | -67.26890 | 12999 ft | 384 kts | 307° |
| 2026-04-27 22:35 | 10.84721 | -67.29042 | 13608 ft | 387 kts | 307° |
| 2026-04-27 22:35 | 10.86341 | -67.31248 | 14166 ft | 390 kts | 307° |
| 2026-04-27 22:35 | 10.87971 | -67.33460 | 14722 ft | 392 kts | 307° |
| 2026-04-27 22:36 | 10.89620 | -67.35687 | 15246 ft | 395 kts | 307° |
| 2026-04-27 22:36 | 10.91282 | -67.37924 | 15772 ft | 398 kts | 307° |
| 2026-04-27 22:36 | 10.92959 | -67.40178 | 16290 ft | 401 kts | 307° |
| 2026-04-27 22:36 | 10.94615 | -67.42468 | 16812 ft | 403 kts | 301° |
| 2026-04-27 22:37 | 10.95777 | -67.45052 | 17339 ft | 403 kts | 284° |
| 2026-04-27 22:37 | 10.96182 | -67.47874 | 17849 ft | 404 kts | 268° |
| 2026-04-27 22:37 | 10.95800 | -67.50693 | 18334 ft | 404 kts | 252° |
| 2026-04-27 22:37 | 10.94652 | -67.53332 | 18768 ft | 404 kts | 236° |
| 2026-04-27 22:38 | 10.92916 | -67.55572 | 19184 ft | 405 kts | 228° |
| 2026-04-27 22:38 | 10.91058 | -67.57749 | 19610 ft | 408 kts | 228° |
| 2026-04-27 22:38 | 10.89188 | -67.59937 | 20047 ft | 411 kts | 228° |
| 2026-04-27 22:38 | 10.87294 | -67.62156 | 20476 ft | 414 kts | 228° |
| 2026-04-27 22:39 | 10.85392 | -67.64391 | 20890 ft | 416 kts | 228° |
| 2026-04-27 22:39 | 10.83516 | -67.66599 | 21306 ft | 419 kts | 228° |
| 2026-04-27 22:39 | 10.81607 | -67.68844 | 21706 ft | 421 kts | 228° |
| 2026-04-27 22:39 | 10.79686 | -67.71102 | 22095 ft | 423 kts | 228° |
| 2026-04-27 22:40 | 10.77754 | -67.73369 | 22480 ft | 426 kts | 228° |
| 2026-04-27 22:40 | 10.75803 | -67.75654 | 22987 ft | 423 kts | 228° |
| 2026-04-27 22:40 | 10.73909 | -67.77878 | 23634 ft | 415 kts | 228° |
| 2026-04-27 22:40 | 10.72006 | -67.80112 | 23840 ft | 420 kts | 228° |
| 2026-04-27 22:41 | 10.70068 | -67.82389 | 23917 ft | 430 kts | 228° |
| 2026-04-27 22:41 | 10.68099 | -67.84701 | 23940 ft | 435 kts | 228° |
| 2026-04-27 22:41 | 10.66115 | -67.87027 | 23939 ft | 435 kts | 228° |
| 2026-04-27 22:41 | 10.64137 | -67.89346 | 23941 ft | 435 kts | 228° |
| 2026-04-27 22:42 | 10.62131 | -67.91703 | 23939 ft | 435 kts | 228° |
| 2026-04-27 22:42 | 10.60178 | -67.93996 | 23941 ft | 435 kts | 228° |
| 2026-04-27 22:42 | 10.58196 | -67.96320 | 23944 ft | 435 kts | 228° |
| 2026-04-27 22:42 | 10.56210 | -67.98644 | 23947 ft | 435 kts | 228° |
| 2026-04-27 22:43 | 10.54222 | -68.00969 | 23948 ft | 435 kts | 228° |
| 2026-04-27 22:43 | 10.52249 | -68.03345 | 23950 ft | 435 kts | 232° |
| 2026-04-27 22:43 | 10.50652 | -68.05968 | 23950 ft | 437 kts | 243° |
| 2026-04-27 22:43 | 10.49524 | -68.08879 | 23952 ft | 438 kts | 253° |
| 2026-04-27 22:44 | 10.48928 | -68.11875 | 23953 ft | 439 kts | 263° |
| 2026-04-27 22:44 | 10.48905 | -68.15021 | 23955 ft | 441 kts | 272° |
| 2026-04-27 22:44 | 10.49039 | -68.17075 | 23954 ft | 441 kts | 272° |
| 2026-04-27 22:44 | 10.49253 | -68.20189 | 23953 ft | 441 kts | 273° |
| 2026-04-27 22:45 | 10.49473 | -68.23292 | 23954 ft | 441 kts | 273° |
| 2026-04-27 22:45 | 10.49696 | -68.26405 | 23952 ft | 441 kts | 273° |
| 2026-04-27 22:45 | 10.49914 | -68.29509 | 23951 ft | 441 kts | 273° |
| 2026-04-27 22:45 | 10.50128 | -68.32615 | 23953 ft | 440 kts | 273° |
| 2026-04-27 22:46 | 10.50345 | -68.35762 | 23953 ft | 440 kts | 273° |
| 2026-04-27 22:46 | 10.50557 | -68.38869 | 23953 ft | 440 kts | 272° |
| 2026-04-27 22:46 | 10.50767 | -68.41978 | 23952 ft | 440 kts | 273° |
| 2026-04-27 22:46 | 10.50977 | -68.45077 | 23951 ft | 440 kts | 272° |
| 2026-04-27 22:47 | 10.51185 | -68.48181 | 23955 ft | 440 kts | 272° |
| 2026-04-27 22:47 | 10.51391 | -68.51277 | 23951 ft | 440 kts | 272° |
| 2026-04-27 22:47 | 10.51598 | -68.54385 | 23955 ft | 440 kts | 272° |
| 2026-04-27 22:47 | 10.51806 | -68.57487 | 23953 ft | 440 kts | 272° |
| 2026-04-27 22:48 | 10.52013 | -68.60588 | 23953 ft | 440 kts | 272° |
| 2026-04-27 22:48 | 10.52220 | -68.63689 | 23951 ft | 440 kts | 272° |
| 2026-04-27 22:48 | 10.52431 | -68.66790 | 23958 ft | 440 kts | 272° |
| 2026-04-27 22:48 | 10.52642 | -68.69887 | 23956 ft | 440 kts | 272° |
| 2026-04-27 22:49 | 10.52853 | -68.72984 | 23954 ft | 439 kts | 272° |
| 2026-04-27 22:49 | 10.53064 | -68.76084 | 23956 ft | 439 kts | 272° |
| 2026-04-27 22:49 | 10.53274 | -68.79182 | 23956 ft | 439 kts | 272° |
| 2026-04-27 22:49 | 10.53483 | -68.82270 | 23956 ft | 439 kts | 272° |
| 2026-04-27 22:50 | 10.53693 | -68.85378 | 23956 ft | 439 kts | 272° |
| 2026-04-27 22:50 | 10.53898 | -68.88431 | 23960 ft | 439 kts | 272° |
| 2026-04-27 22:50 | 10.54107 | -68.91562 | 23958 ft | 439 kts | 273° |
| 2026-04-27 22:50 | 10.54313 | -68.94655 | 23955 ft | 439 kts | 272° |
| 2026-04-27 22:51 | 10.54525 | -68.97750 | 23958 ft | 439 kts | 273° |
| 2026-04-27 22:51 | 10.54763 | -69.00881 | 23959 ft | 439 kts | 273° |
| 2026-04-27 22:51 | 10.55013 | -69.03969 | 23959 ft | 438 kts | 274° |
| 2026-04-27 22:51 | 10.55268 | -69.07056 | 23957 ft | 439 kts | 274° |
| 2026-04-27 22:52 | 10.55524 | -69.10152 | 23958 ft | 438 kts | 274° |
| 2026-04-27 22:52 | 10.55775 | -69.13240 | 23959 ft | 439 kts | 273° |
| 2026-04-27 22:52 | 10.56022 | -69.16328 | 23961 ft | 438 kts | 273° |
| 2026-04-27 22:52 | 10.56266 | -69.19420 | 23958 ft | 438 kts | 273° |
| 2026-04-27 22:53 | 10.56509 | -69.22512 | 23960 ft | 438 kts | 273° |
| 2026-04-27 22:53 | 10.56753 | -69.25605 | 23958 ft | 438 kts | 273° |
| 2026-04-27 22:53 | 10.56998 | -69.28691 | 23962 ft | 438 kts | 273° |
| 2026-04-27 22:53 | 10.57228 | -69.31776 | 23963 ft | 438 kts | 273° |
| 2026-04-27 22:54 | 10.57452 | -69.34864 | 23959 ft | 438 kts | 273° |
| 2026-04-27 22:54 | 10.57677 | -69.37948 | 23959 ft | 438 kts | 273° |
| 2026-04-27 22:54 | 10.57906 | -69.41080 | 23960 ft | 438 kts | 273° |
| 2026-04-27 22:54 | 10.58132 | -69.44169 | 23957 ft | 438 kts | 273° |
| 2026-04-27 22:55 | 10.58359 | -69.47220 | 23958 ft | 438 kts | 273° |
| 2026-04-27 22:55 | 10.58592 | -69.50347 | 23955 ft | 438 kts | 273° |
| 2026-04-27 22:55 | 10.58823 | -69.53443 | 23615 ft | 439 kts | 273° |
| 2026-04-27 22:55 | 10.59052 | -69.56523 | 22952 ft | 437 kts | 273° |
| 2026-04-27 22:56 | 10.59283 | -69.59597 | 22256 ft | 434 kts | 273° |
| 2026-04-27 22:56 | 10.59512 | -69.62644 | 21614 ft | 430 kts | 273° |
| 2026-04-27 22:56 | 10.59736 | -69.65663 | 21013 ft | 427 kts | 273° |
| 2026-04-27 22:56 | 10.59957 | -69.68660 | 20420 ft | 423 kts | 273° |
| 2026-04-27 22:57 | 10.60174 | -69.71631 | 19859 ft | 420 kts | 273° |
| 2026-04-27 22:57 | 10.60384 | -69.74580 | 19315 ft | 418 kts | 273° |
| 2026-04-27 22:57 | 10.60589 | -69.77524 | 18789 ft | 415 kts | 273° |
| 2026-04-27 22:57 | 10.60789 | -69.80436 | 18276 ft | 412 kts | 273° |
| 2026-04-27 22:58 | 10.60986 | -69.83331 | 17678 ft | 410 kts | 273° |
| 2026-04-27 22:58 | 10.61180 | -69.86212 | 17106 ft | 407 kts | 273° |
| 2026-04-27 22:58 | 10.61431 | -69.89072 | 16542 ft | 404 kts | 276° |
| 2026-04-27 22:58 | 10.61780 | -69.91906 | 15989 ft | 402 kts | 277° |
| 2026-04-27 22:59 | 10.62182 | -69.94706 | 15459 ft | 399 kts | 278° |
| 2026-04-27 22:59 | 10.62603 | -69.97492 | 14932 ft | 397 kts | 278° |
| 2026-04-27 22:59 | 10.63018 | -70.00259 | 14425 ft | 394 kts | 278° |
| 2026-04-27 22:59 | 10.63416 | -70.03006 | 13916 ft | 391 kts | 278° |
| 2026-04-27 23:00 | 10.64172 | -70.08444 | 12817 ft | 385 kts | 278° |
| 2026-04-27 23:00 | 10.64537 | -70.11131 | 12274 ft | 382 kts | 278° |
| 2026-04-27 23:00 | 10.64894 | -70.13795 | 11732 ft | 379 kts | 277° |
| 2026-04-27 23:01 | 10.65246 | -70.16438 | 11178 ft | 375 kts | 277° |
| 2026-04-27 23:01 | 10.65596 | -70.19053 | 10633 ft | 372 kts | 278° |
| 2026-04-27 23:01 | 10.65945 | -70.21660 | 10138 ft | 370 kts | 278° |
| 2026-04-27 23:01 | 10.66293 | -70.24255 | 9946 ft | 368 kts | 278° |
| 2026-04-27 23:02 | 10.66630 | -70.26767 | 9932 ft | 348 kts | 278° |
| 2026-04-27 23:02 | 10.66947 | -70.29136 | 9938 ft | 329 kts | 278° |
| 2026-04-27 23:02 | 10.67247 | -70.31378 | 9936 ft | 311 kts | 278° |
| 2026-04-27 23:02 | 10.67534 | -70.33522 | 9829 ft | 304 kts | 278° |
| 2026-04-27 23:03 | 10.67822 | -70.35649 | 9705 ft | 304 kts | 278° |
| 2026-04-27 23:03 | 10.68111 | -70.37776 | 9573 ft | 303 kts | 278° |
| 2026-04-27 23:03 | 10.68400 | -70.39898 | 9445 ft | 302 kts | 278° |
| 2026-04-27 23:03 | 10.68685 | -70.42012 | 9319 ft | 302 kts | 278° |
| 2026-04-27 23:04 | 10.68957 | -70.44047 | 9200 ft | 302 kts | 278° |
| 2026-04-27 23:04 | 10.69239 | -70.46149 | 9080 ft | 301 kts | 278° |
| 2026-04-27 23:04 | 10.69522 | -70.48264 | 8953 ft | 300 kts | 278° |
| 2026-04-27 23:04 | 10.69800 | -70.50359 | 8829 ft | 299 kts | 277° |
| 2026-04-27 23:05 | 10.70078 | -70.52455 | 8701 ft | 299 kts | 278° |
| 2026-04-27 23:05 | 10.70358 | -70.54546 | 8572 ft | 298 kts | 278° |
| 2026-04-27 23:05 | 10.70639 | -70.56633 | 8459 ft | 297 kts | 278° |
| 2026-04-27 23:05 | 10.70920 | -70.58710 | 8335 ft | 297 kts | 278° |
| 2026-04-27 23:06 | 10.71199 | -70.60790 | 8210 ft | 297 kts | 278° |
| 2026-04-27 23:06 | 10.71474 | -70.62863 | 8087 ft | 296 kts | 277° |
| 2026-04-27 23:06 | 10.71750 | -70.64943 | 7965 ft | 296 kts | 278° |
| 2026-04-27 23:06 | 10.72024 | -70.67013 | 7845 ft | 295 kts | 278° |
| 2026-04-27 23:07 | 10.72298 | -70.69082 | 7726 ft | 295 kts | 278° |
| 2026-04-27 23:07 | 10.72573 | -70.71146 | 7602 ft | 295 kts | 278° |
| 2026-04-27 23:07 | 10.72848 | -70.73207 | 7482 ft | 294 kts | 277° |
| 2026-04-27 23:07 | 10.73122 | -70.75265 | 7360 ft | 293 kts | 278° |
| 2026-04-27 23:08 | 10.73396 | -70.77318 | 7237 ft | 293 kts | 278° |
| 2026-04-27 23:08 | 10.73672 | -70.79370 | 7128 ft | 292 kts | 278° |
| 2026-04-27 23:08 | 10.73945 | -70.81417 | 7007 ft | 293 kts | 277° |
| 2026-04-27 23:08 | 10.74217 | -70.83469 | 6881 ft | 292 kts | 278° |
| 2026-04-27 23:09 | 10.74489 | -70.85520 | 6765 ft | 292 kts | 278° |
| 2026-04-27 23:09 | 10.74758 | -70.87561 | 6653 ft | 291 kts | 277° |
| 2026-04-27 23:09 | 10.75028 | -70.89607 | 6535 ft | 291 kts | 278° |
| 2026-04-27 23:09 | 10.75299 | -70.91647 | 6416 ft | 292 kts | 278° |
| 2026-04-27 23:10 | 10.75575 | -70.93698 | 6300 ft | 291 kts | 278° |
| 2026-04-27 23:10 | 10.75845 | -70.95733 | 6181 ft | 291 kts | 278° |
| 2026-04-27 23:10 | 10.76112 | -70.97770 | 6052 ft | 290 kts | 277° |
| 2026-04-27 23:10 | 10.76378 | -70.99803 | 5930 ft | 289 kts | 278° |
| 2026-04-27 23:11 | 10.76645 | -71.01823 | 5808 ft | 288 kts | 278° |
| 2026-04-27 23:11 | 10.76911 | -71.03826 | 5691 ft | 288 kts | 278° |
| 2026-04-27 23:11 | 10.77179 | -71.05841 | 5562 ft | 288 kts | 278° |
| 2026-04-27 23:11 | 10.77444 | -71.07853 | 5440 ft | 286 kts | 278° |
| 2026-04-27 23:12 | 10.77709 | -71.09865 | 5322 ft | 286 kts | 278° |
| 2026-04-27 23:12 | 10.77977 | -71.11895 | 5195 ft | 286 kts | 278° |
| 2026-04-27 23:12 | 10.78240 | -71.13899 | 5078 ft | 286 kts | 278° |
| 2026-04-27 23:12 | 10.78505 | -71.15899 | 4959 ft | 285 kts | 278° |
| 2026-04-27 23:13 | 10.78770 | -71.17894 | 4891 ft | 285 kts | 278° |
| 2026-04-27 23:13 | 10.79034 | -71.19869 | 4910 ft | 285 kts | 278° |
| 2026-04-27 23:13 | 10.79299 | -71.21867 | 4904 ft | 286 kts | 278° |
| 2026-04-27 23:13 | 10.79561 | -71.23866 | 4905 ft | 285 kts | 278° |
| 2026-04-27 23:14 | 10.79764 | -71.25875 | 4904 ft | 285 kts | 268° |
| 2026-04-27 23:14 | 10.79327 | -71.27823 | 4909 ft | 285 kts | 244° |
| 2026-04-27 23:14 | 10.78422 | -71.29616 | 4904 ft | 285 kts | 242° |
| 2026-04-27 23:14 | 10.77811 | -71.30798 | 4904 ft | 285 kts | 242° |
| 2026-04-27 23:15 | 10.76574 | -71.33183 | 4907 ft | 285 kts | 242° |
| 2026-04-27 23:15 | 10.75961 | -71.34367 | 4911 ft | 286 kts | 242° |
| 2026-04-27 23:15 | 10.75037 | -71.36155 | 4911 ft | 285 kts | 242° |
| 2026-04-27 23:15 | 10.74118 | -71.37936 | 4906 ft | 283 kts | 242° |
| 2026-04-27 23:16 | 10.73234 | -71.39649 | 4904 ft | 264 kts | 242° |
| 2026-04-27 23:16 | 10.72409 | -71.41252 | 4907 ft | 246 kts | 242° |
| 2026-04-27 23:16 | 10.71644 | -71.42739 | 4909 ft | 229 kts | 242° |
| 2026-04-27 23:16 | 10.70929 | -71.44133 | 4908 ft | 219 kts | 242° |
| 2026-04-27 23:17 | 10.70216 | -71.45529 | 4906 ft | 219 kts | 242° |
| 2026-04-27 23:17 | 10.69525 | -71.46873 | 4941 ft | 209 kts | 241° |
| 2026-04-27 23:17 | 10.68877 | -71.48126 | 4917 ft | 192 kts | 241° |
| 2026-04-27 23:17 | 10.68285 | -71.49271 | 4903 ft | 175 kts | 242° |
| 2026-04-27 23:18 | 10.67712 | -71.50380 | 4929 ft | 180 kts | 242° |
| 2026-04-27 23:18 | 10.67127 | -71.51511 | 4914 ft | 181 kts | 241° |
| 2026-04-27 23:18 | 10.66562 | -71.52652 | 4804 ft | 180 kts | 243° |
| 2026-04-27 23:18 | 10.66021 | -71.53793 | 4690 ft | 179 kts | 244° |
| 2026-04-27 23:19 | 10.65484 | -71.54937 | 4565 ft | 179 kts | 244° |
| 2026-04-27 23:19 | 10.64945 | -71.56082 | 4441 ft | 179 kts | 245° |
| 2026-04-27 23:19 | 10.64403 | -71.57228 | 4321 ft | 180 kts | 245° |
| 2026-04-27 23:19 | 10.63863 | -71.58371 | 4198 ft | 179 kts | 245° |
| 2026-04-27 23:20 | 10.63323 | -71.59513 | 4076 ft | 179 kts | 245° |
| 2026-04-27 23:20 | 10.62781 | -71.60656 | 3993 ft | 179 kts | 244° |
| 2026-04-27 23:20 | 10.62243 | -71.61788 | 3912 ft | 177 kts | 245° |
| 2026-04-27 23:20 | 10.61705 | -71.62918 | 3907 ft | 177 kts | 245° |
| 2026-04-27 23:21 | 10.61168 | -71.64048 | 3904 ft | 178 kts | 245° |
| 2026-04-27 23:21 | 10.60632 | -71.65179 | 3906 ft | 178 kts | 245° |
| 2026-04-27 23:21 | 10.60097 | -71.66307 | 3906 ft | 177 kts | 245° |
| 2026-04-27 23:21 | 10.59562 | -71.67434 | 3947 ft | 177 kts | 245° |
| 2026-04-27 23:22 | 10.59025 | -71.68565 | 4009 ft | 178 kts | 245° |
| 2026-04-27 23:22 | 10.58487 | -71.69702 | 4029 ft | 179 kts | 245° |
| 2026-04-27 23:22 | 10.57954 | -71.70827 | 4043 ft | 179 kts | 245° |
| 2026-04-27 23:22 | 10.57414 | -71.71963 | 4048 ft | 178 kts | 245° |
| 2026-04-27 23:23 | 10.56870 | -71.73109 | 4048 ft | 178 kts | 245° |
| 2026-04-27 23:23 | 10.56262 | -71.74205 | 4050 ft | 178 kts | 237° |
| 2026-04-27 23:23 | 10.55553 | -71.75242 | 3997 ft | 179 kts | 234° |
| 2026-04-27 23:23 | 10.54839 | -71.76246 | 3778 ft | 175 kts | 234° |
| 2026-04-27 23:24 | 10.54122 | -71.77245 | 3422 ft | 174 kts | 234° |
| 2026-04-27 23:24 | 10.53404 | -71.78236 | 3058 ft | 174 kts | 235° |
| 2026-04-27 23:24 | 10.52684 | -71.79218 | 2689 ft | 174 kts | 235° |
| 2026-04-27 23:24 | 10.51957 | -71.80195 | 2337 ft | 172 kts | 235° |
| 2026-04-27 23:25 | 10.51231 | -71.81164 | 1974 ft | 172 kts | 234° |
| 2026-04-27 23:25 | 10.50482 | -71.82111 | 1824 ft | 173 kts | 226° |
| 2026-04-27 23:25 | 10.49412 | -71.82618 | 1839 ft | 173 kts | 181° |
| 2026-04-27 23:25 | 10.48314 | -71.82256 | 1824 ft | 167 kts | 135° |
| 2026-04-27 23:26 | 10.47812 | -71.81257 | 1821 ft | 159 kts | 89° |
| 2026-04-27 23:26 | 10.48133 | -71.80226 | 1820 ft | 154 kts | 57° |
| 2026-04-27 23:26 | 10.48455 | -71.79195 | 1801 ft | 159 kts | 87° |
| 2026-04-27 23:26 | 10.48353 | -71.78077 | 1827 ft | 158 kts | 91° |
| 2026-04-27 23:27 | 10.48458 | -71.76991 | 1601 ft | 154 kts | 68° |
| 2026-04-27 23:27 | 10.48985 | -71.76059 | 1394 ft | 154 kts | 45° |
| 2026-04-27 23:27 | 10.49839 | -71.75434 | 1213 ft | 151 kts | 22° |
| 2026-04-27 23:27 | 10.50814 | -71.75022 | 1023 ft | 152 kts | 22° |
| 2026-04-27 23:28 | 10.51799 | -71.74604 | 825 ft | 155 kts | 23° |
| 2026-04-27 23:28 | 10.52775 | -71.74189 | 667 ft | 150 kts | 21° |
| 2026-04-27 23:28 | 10.53739 | -71.73784 | 395 ft | 149 kts | 23° |
| 2026-04-27 23:28 | 10.54702 | -71.73369 | 243 ft | 150 kts | 23° |
| 2026-04-27 23:29 | 10.55603 | -71.72976 | 236 ft | 124 kts | 21° |
| 2026-04-27 23:29 | 10.56196 | -71.72731 | 239 ft | 41 kts | 19° |
| 2026-04-27 23:29 | 10.56403 | -71.72626 | 243 ft | 33 kts | 50° |
| 2026-04-27 23:29 | 10.56522 | -71.72466 | 239 ft | 27 kts | 50° |
| 2026-04-27 23:30 | 10.56577 | -71.72376 | 239 ft | 14 kts | 77° |
| 2026-04-27 23:30 | 10.56571 | -71.72309 | 238 ft | 7 kts | 108° |
| 2026-04-27 23:30 | 10.56565 | -71.72291 | 238 ft | 0 kts | 108° |
| 2026-04-27 23:31 | 10.56555 | -71.72261 | 238 ft | 10 kts | 107° |
| 2026-04-27 23:31 | 10.56549 | -71.72229 | 238 ft | 4 kts | 79° |
| 2026-04-27 23:31 | 10.56593 | -71.72223 | 238 ft | 8 kts | 324° |
| 2026-04-27 23:31 | 10.56647 | -71.72280 | 239 ft | 14 kts | 330° |
| 2026-04-27 23:32 | 10.56629 | -71.72350 | 239 ft | 15 kts | 213° |
| 2026-04-27 23:32 | 10.56535 | -71.72441 | 239 ft | 23 kts | 239° |
| 2026-04-27 23:32 | 10.56443 | -71.72569 | 242 ft | 23 kts | 229° |
| 2026-04-27 23:32 | 10.56318 | -71.72674 | 242 ft | 20 kts | 195° |
| 2026-04-27 23:33 | 10.56163 | -71.72746 | 239 ft | 29 kts | 209° |
| 2026-04-27 23:33 | 10.55964 | -71.72826 | 237 ft | 32 kts | 191° |
| 2026-04-27 23:33 | 10.55796 | -71.72856 | 239 ft | 21 kts | 145° |
| 2026-04-27 23:33 | 10.55724 | -71.72728 | 227 ft | 23 kts | 123° |
| 2026-04-27 23:34 | 10.55662 | -71.72588 | 229 ft | 14 kts | 116° |
| 2026-04-27 23:34 | 10.55639 | -71.72542 | 230 ft | 1 kts | 115° |
| 2026-04-27 23:34 | 10.55632 | -71.72518 | 228 ft | 10 kts | 105° |
| 2026-04-27 23:34 | 10.55645 | -71.72440 | 231 ft | 0 kts | 62° |